sensor_id;sensor_type;location;lat;lon;timestamp;pressure;altitude;pressure_sealevel;temperature;humidity
19594;BME280;9944;48.240;16.478;2023-05-16T00:00:30;99327.25;;;12.94;70.44
19594;BME280;9944;48.240;16.478;2023-05-16T00:04:37;99334.31;;;12.95;70.22
19594;BME280;9944;48.240;16.478;2023-05-16T00:08:40;99316.66;;;12.94;70.32
19594;BME280;9944;48.240;16.478;2023-05-16T00:12:43;99319.31;;;12.94;70.06
19594;BME280;9944;48.240;16.478;2023-05-16T00:16:50;99313.97;;;12.96;70.43
19594;BME280;9944;48.240;16.478;2023-05-16T00:20:55;99309.53;;;12.96;70.22
19594;BME280;9944;48.240;16.478;2023-05-16T00:24:58;99314.94;;;12.93;70.49
19594;BME280;9944;48.240;16.478;2023-05-16T00:29:01;99317.69;;;12.87;70.39
19594;BME280;9944;48.240;16.478;2023-05-16T00:33:04;99312.47;;;12.82;70.29
19594;BME280;9944;48.240;16.478;2023-05-16T00:37:09;99308.97;;;12.82;70.39
19594;BME280;9944;48.240;16.478;2023-05-16T00:41:12;99309.81;;;12.84;70.59
19594;BME280;9944;48.240;16.478;2023-05-16T00:45:15;99302.72;;;12.86;70.45
19594;BME280;9944;48.240;16.478;2023-05-16T00:49:18;99300.13;;;12.83;70.47
19594;BME280;9944;48.240;16.478;2023-05-16T00:53:24;99294.00;;;12.81;70.24
19594;BME280;9944;48.240;16.478;2023-05-16T00:57:27;99292.25;;;12.80;70.68
19594;BME280;9944;48.240;16.478;2023-05-16T01:01:30;99302.84;;;12.80;70.80
19594;BME280;9944;48.240;16.478;2023-05-16T01:05:34;99301.03;;;12.82;70.86
19594;BME280;9944;48.240;16.478;2023-05-16T01:09:39;99288.69;;;12.81;70.78
19594;BME280;9944;48.240;16.478;2023-05-16T01:13:48;99276.34;;;12.80;70.56
19594;BME280;9944;48.240;16.478;2023-05-16T01:17:59;99295.88;;;12.76;70.77
19594;BME280;9944;48.240;16.478;2023-05-16T01:22:10;99294.16;;;12.72;71.11
19594;BME280;9944;48.240;16.478;2023-05-16T01:26:18;99289.81;;;12.69;71.09
19594;BME280;9944;48.240;16.478;2023-05-16T01:30:23;99296.06;;;12.65;70.88
19594;BME280;9944;48.240;16.478;2023-05-16T01:34:26;99295.22;;;12.63;71.21
19594;BME280;9944;48.240;16.478;2023-05-16T01:38:32;99298.81;;;12.60;71.40
19594;BME280;9944;48.240;16.478;2023-05-16T01:42:43;99298.84;;;12.59;71.87
19594;BME280;9944;48.240;16.478;2023-05-16T01:46:48;99288.31;;;12.54;72.05
19594;BME280;9944;48.240;16.478;2023-05-16T01:50:55;99281.34;;;12.50;72.20
19594;BME280;9944;48.240;16.478;2023-05-16T01:54:59;99283.22;;;12.43;72.40
19594;BME280;9944;48.240;16.478;2023-05-16T01:59:06;99272.69;;;12.40;72.90
19594;BME280;9944;48.240;16.478;2023-05-16T02:03:10;99268.25;;;12.42;73.31
19594;BME280;9944;48.240;16.478;2023-05-16T02:07:13;99268.22;;;12.44;73.72
19594;BME280;9944;48.240;16.478;2023-05-16T02:11:19;99270.88;;;12.44;74.06
19594;BME280;9944;48.240;16.478;2023-05-16T02:15:24;99282.38;;;12.43;73.97
19594;BME280;9944;48.240;16.478;2023-05-16T02:19:27;99281.44;;;12.44;73.98
19594;BME280;9944;48.240;16.478;2023-05-16T02:23:30;99275.31;;;12.42;74.05
19594;BME280;9944;48.240;16.478;2023-05-16T02:27:33;99268.28;;;12.41;73.86
19594;BME280;9944;48.240;16.478;2023-05-16T02:31:38;99264.78;;;12.39;73.60
19594;BME280;9944;48.240;16.478;2023-05-16T02:35:43;99264.81;;;12.37;73.73
19594;BME280;9944;48.240;16.478;2023-05-16T02:39:46;99266.59;;;12.37;73.57
19594;BME280;9944;48.240;16.478;2023-05-16T02:43:50;99275.47;;;12.36;73.73
19594;BME280;9944;48.240;16.478;2023-05-16T02:47:54;99273.69;;;12.35;73.15
19594;BME280;9944;48.240;16.478;2023-05-16T02:51:57;99274.59;;;12.34;73.25
19594;BME280;9944;48.240;16.478;2023-05-16T02:56:00;99254.38;;;12.29;73.03
19594;BME280;9944;48.240;16.478;2023-05-16T03:00:08;99249.16;;;12.26;73.04
19594;BME280;9944;48.240;16.478;2023-05-16T03:04:13;99246.50;;;12.26;73.04
19594;BME280;9944;48.240;16.478;2023-05-16T03:08:17;99244.78;;;12.25;73.00
19594;BME280;9944;48.240;16.478;2023-05-16T03:12:20;99250.06;;;12.25;73.34
19594;BME280;9944;48.240;16.478;2023-05-16T03:16:24;99247.44;;;12.25;73.45
19594;BME280;9944;48.240;16.478;2023-05-16T03:20:29;99239.50;;;12.24;73.08
19594;BME280;9944;48.240;16.478;2023-05-16T03:24:32;99238.75;;;12.17;73.45
19594;BME280;9944;48.240;16.478;2023-05-16T03:28:35;99232.69;;;12.10;73.60
19594;BME280;9944;48.240;16.478;2023-05-16T03:32:39;99232.78;;;12.06;73.72
19594;BME280;9944;48.240;16.478;2023-05-16T03:36:43;99219.56;;;12.06;73.78
19594;BME280;9944;48.240;16.478;2023-05-16T03:40:46;99232.75;;;12.07;73.80
19594;BME280;9944;48.240;16.478;2023-05-16T03:44:49;99254.72;;;12.11;74.05
19594;BME280;9944;48.240;16.478;2023-05-16T03:48:52;99247.69;;;12.11;73.80
19594;BME280;9944;48.240;16.478;2023-05-16T03:52:56;99247.69;;;12.11;73.90
19594;BME280;9944;48.240;16.478;2023-05-16T03:57:00;99266.22;;;12.11;74.21
19594;BME280;9944;48.240;16.478;2023-05-16T04:01:03;99274.13;;;12.13;74.16
19594;BME280;9944;48.240;16.478;2023-05-16T04:05:07;99274.97;;;12.15;74.15
19594;BME280;9944;48.240;16.478;2023-05-16T04:09:12;99265.22;;;12.17;74.76
19594;BME280;9944;48.240;16.478;2023-05-16T04:13:15;99270.47;;;12.20;75.11
19594;BME280;9944;48.240;16.478;2023-05-16T04:17:19;99255.44;;;12.21;75.15
19594;BME280;9944;48.240;16.478;2023-05-16T04:21:22;99240.44;;;12.21;74.99
19594;BME280;9944;48.240;16.478;2023-05-16T04:25:26;99249.19;;;12.23;75.38
19594;BME280;9944;48.240;16.478;2023-05-16T04:29:30;99257.09;;;12.26;75.58
19594;BME280;9944;48.240;16.478;2023-05-16T04:33:33;99251.78;;;12.26;75.71
19594;BME280;9944;48.240;16.478;2023-05-16T04:37:37;99252.63;;;12.28;75.59
19594;BME280;9944;48.240;16.478;2023-05-16T04:41:41;99256.25;;;12.24;75.67
19594;BME280;9944;48.240;16.478;2023-05-16T04:45:44;99266.84;;;12.24;76.10
19594;BME280;9944;48.240;16.478;2023-05-16T04:49:47;99289.75;;;12.27;76.31
19594;BME280;9944;48.240;16.478;2023-05-16T04:53:50;99301.16;;;12.29;76.38
19594;BME280;9944;48.240;16.478;2023-05-16T04:57:55;99316.91;;;12.35;76.57
19594;BME280;9944;48.240;16.478;2023-05-16T05:01:58;99319.53;;;12.37;76.51
19594;BME280;9944;48.240;16.478;2023-05-16T05:06:01;99301.78;;;12.42;76.69
19594;BME280;9944;48.240;16.478;2023-05-16T05:10:04;99300.81;;;12.46;76.59
19594;BME280;9944;48.240;16.478;2023-05-16T05:14:09;99296.31;;;12.51;76.34
19594;BME280;9944;48.240;16.478;2023-05-16T05:18:13;99284.78;;;12.55;76.34
19594;BME280;9944;48.240;16.478;2023-05-16T05:22:16;99284.69;;;12.60;76.29
19594;BME280;9944;48.240;16.478;2023-05-16T05:26:19;99297.78;;;12.67;76.65
19594;BME280;9944;48.240;16.478;2023-05-16T05:30:24;99319.72;;;12.74;76.37
19594;BME280;9944;48.240;16.478;2023-05-16T05:34:27;99327.63;;;12.77;75.96
19594;BME280;9944;48.240;16.478;2023-05-16T05:38:30;99325.72;;;12.82;76.18
19594;BME280;9944;48.240;16.478;2023-05-16T05:42:33;99316.69;;;12.93;76.67
19594;BME280;9944;48.240;16.478;2023-05-16T05:46:37;99313.81;;;13.03;76.41
19594;BME280;9944;48.240;16.478;2023-05-16T05:50:41;99309.31;;;13.09;75.57
19594;BME280;9944;48.240;16.478;2023-05-16T05:54:44;99317.28;;;13.07;75.20
19594;BME280;9944;48.240;16.478;2023-05-16T05:58:47;99314.53;;;13.10;74.71
19594;BME280;9944;48.240;16.478;2023-05-16T06:02:52;99316.25;;;13.13;74.41
19594;BME280;9944;48.240;16.478;2023-05-16T06:06:55;99320.59;;;13.17;74.05
19594;BME280;9944;48.240;16.478;2023-05-16T06:10:59;99323.16;;;13.20;73.79
19594;BME280;9944;48.240;16.478;2023-05-16T06:15:03;99308.94;;;13.24;73.96
19594;BME280;9944;48.240;16.478;2023-05-16T06:19:08;99304.38;;;13.31;73.98
19594;BME280;9944;48.240;16.478;2023-05-16T06:23:13;99302.53;;;13.33;73.83
19594;BME280;9944;48.240;16.478;2023-05-16T06:27:16;99301.56;;;13.38;74.24
19594;BME280;9944;48.240;16.478;2023-05-16T06:31:19;99295.22;;;13.44;74.26
19594;BME280;9944;48.240;16.478;2023-05-16T06:35:24;99306.63;;;13.48;74.19
19594;BME280;9944;48.240;16.478;2023-05-16T06:39:27;99295.09;;;13.50;74.06
19594;BME280;9944;48.240;16.478;2023-05-16T06:43:30;99304.75;;;13.53;73.49
19594;BME280;9944;48.240;16.478;2023-05-16T06:47:33;99301.22;;;13.52;72.97
19594;BME280;9944;48.240;16.478;2023-05-16T06:51:37;99296.75;;;13.54;73.03
19594;BME280;9944;48.240;16.478;2023-05-16T06:55:41;99300.19;;;13.58;72.99
19594;BME280;9944;48.240;16.478;2023-05-16T06:59:44;99297.41;;;13.64;73.21
19594;BME280;9944;48.240;16.478;2023-05-16T07:03:47;99291.84;;;13.76;73.87
19594;BME280;9944;48.240;16.478;2023-05-16T07:07:52;99294.25;;;13.86;74.13
19594;BME280;9944;48.240;16.478;2023-05-16T07:11:55;99285.25;;;13.91;73.57
19594;BME280;9944;48.240;16.478;2023-05-16T07:15:58;99298.50;;;13.93;73.70
19594;BME280;9944;48.240;16.478;2023-05-16T07:20:02;99302.78;;;13.97;73.89
19594;BME280;9944;48.240;16.478;2023-05-16T07:24:07;99301.06;;;13.96;73.68
19594;BME280;9944;48.240;16.478;2023-05-16T07:28:10;99307.13;;;14.01;73.79
19594;BME280;9944;48.240;16.478;2023-05-16T07:32:13;99303.66;;;13.99;73.33
19594;BME280;9944;48.240;16.478;2023-05-16T07:36:17;99308.97;;;13.99;73.05
19594;BME280;9944;48.240;16.478;2023-05-16T07:40:21;99309.09;;;13.93;72.61
19594;BME280;9944;48.240;16.478;2023-05-16T07:44:29;99313.66;;;13.88;72.56
19594;BME280;9944;48.240;16.478;2023-05-16T07:52:35;99334.19;;;13.79;72.04
19594;BME280;9944;48.240;16.478;2023-05-16T07:56:39;99334.31;;;13.75;72.47
19594;BME280;9944;48.240;16.478;2023-05-16T08:00:42;99346.63;;;13.77;72.55
19594;BME280;9944;48.240;16.478;2023-05-16T08:04:45;99355.41;;;13.79;73.01
19594;BME280;9944;48.240;16.478;2023-05-16T08:08:49;99365.03;;;13.85;73.60
19594;BME280;9944;48.240;16.478;2023-05-16T08:12:53;99367.66;;;13.87;73.73
19594;BME280;9944;48.240;16.478;2023-05-16T08:16:57;99384.50;;;13.84;73.87
19594;BME280;9944;48.240;16.478;2023-05-16T08:21:01;99399.50;;;13.87;74.42
19594;BME280;9944;48.240;16.478;2023-05-16T08:25:05;99411.88;;;13.85;74.44
19594;BME280;9944;48.240;16.478;2023-05-16T08:29:11;99410.09;;;13.87;74.79
19594;BME280;9944;48.240;16.478;2023-05-16T08:33:14;99412.66;;;13.90;74.94
19594;BME280;9944;48.240;16.478;2023-05-16T08:37:17;99415.25;;;13.93;75.28
19594;BME280;9944;48.240;16.478;2023-05-16T08:41:20;99409.91;;;13.94;75.75
19594;BME280;9944;48.240;16.478;2023-05-16T08:45:25;99404.63;;;13.93;76.34
19594;BME280;9944;48.240;16.478;2023-05-16T08:49:29;99403.91;;;13.86;76.02
19594;BME280;9944;48.240;16.478;2023-05-16T08:53:39;99411.09;;;13.81;76.25
19594;BME280;9944;48.240;16.478;2023-05-16T08:57:48;99396.13;;;13.78;76.41
19594;BME280;9944;48.240;16.478;2023-05-16T09:01:53;99382.19;;;13.67;76.70
19594;BME280;9944;48.240;16.478;2023-05-16T09:05:57;99367.25;;;13.65;77.19
19594;BME280;9944;48.240;16.478;2023-05-16T09:10:00;99353.97;;;13.65;77.81
19594;BME280;9944;48.240;16.478;2023-05-16T09:14:03;99348.81;;;13.58;78.02
19594;BME280;9944;48.240;16.478;2023-05-16T09:18:11;99353.28;;;13.56;77.93
19594;BME280;9944;48.240;16.478;2023-05-16T09:22:15;99340.19;;;13.50;78.46
19594;BME280;9944;48.240;16.478;2023-05-16T09:26:18;99334.00;;;13.48;78.57
19594;BME280;9944;48.240;16.478;2023-05-16T09:30:22;99327.06;;;13.44;78.57
19594;BME280;9944;48.240;16.478;2023-05-16T09:34:27;99319.13;;;13.42;79.15
19594;BME280;9944;48.240;16.478;2023-05-16T09:38:30;99322.66;;;13.41;78.99
19594;BME280;9944;48.240;16.478;2023-05-16T09:42:33;99304.25;;;13.37;79.26
19594;BME280;9944;48.240;16.478;2023-05-16T09:46:37;99303.44;;;13.33;79.80
19594;BME280;9944;48.240;16.478;2023-05-16T09:50:46;99306.09;;;13.33;79.91
19594;BME280;9944;48.240;16.478;2023-05-16T09:54:50;99313.25;;;13.30;80.19
19594;BME280;9944;48.240;16.478;2023-05-16T09:58:54;99329.28;;;13.23;80.04
19594;BME280;9944;48.240;16.478;2023-05-16T10:02:58;99337.28;;;13.20;80.58
19594;BME280;9944;48.240;16.478;2023-05-16T10:07:07;99342.59;;;13.20;80.83
19594;BME280;9944;48.240;16.478;2023-05-16T10:11:12;99342.50;;;13.25;81.07
19594;BME280;9944;48.240;16.478;2023-05-16T10:15:16;99347.75;;;13.28;81.45
19594;BME280;9944;48.240;16.478;2023-05-16T10:19:20;99364.44;;;13.32;81.44
19594;BME280;9944;48.240;16.478;2023-05-16T10:23:30;99375.81;;;13.37;81.98
19594;BME280;9944;48.240;16.478;2023-05-16T10:27:34;99363.34;;;13.42;82.00
19594;BME280;9944;48.240;16.478;2023-05-16T10:31:38;99360.56;;;13.47;82.42
19594;BME280;9944;48.240;16.478;2023-05-16T10:35:42;99370.22;;;13.51;82.24
19594;BME280;9944;48.240;16.478;2023-05-16T10:39:47;99379.00;;;13.53;82.42
19594;BME280;9944;48.240;16.478;2023-05-16T10:43:59;99371.03;;;13.53;82.45
19594;BME280;9944;48.240;16.478;2023-05-16T10:48:04;99366.72;;;13.49;82.14
19594;BME280;9944;48.240;16.478;2023-05-16T10:52:10;99370.28;;;13.48;82.58
19594;BME280;9944;48.240;16.478;2023-05-16T10:56:21;99375.53;;;13.51;82.60
19594;BME280;9944;48.240;16.478;2023-05-16T11:00:24;99373.69;;;13.53;82.81
19594;BME280;9944;48.240;16.478;2023-05-16T11:04:45;99365.75;;;13.53;82.81
19594;BME280;9944;48.240;16.478;2023-05-16T11:08:57;99371.88;;;13.55;82.93
19594;BME280;9944;48.240;16.478;2023-05-16T11:13:07;99369.19;;;13.56;82.82
19594;BME280;9944;48.240;16.478;2023-05-16T11:17:12;99361.34;;;13.52;82.45
19594;BME280;9944;48.240;16.478;2023-05-16T11:21:16;99366.81;;;13.44;82.70
19594;BME280;9944;48.240;16.478;2023-05-16T11:25:34;99356.16;;;13.47;82.95
19594;BME280;9944;48.240;16.478;2023-05-16T11:29:41;99351.75;;;13.46;83.07
19594;BME280;9944;48.240;16.478;2023-05-16T11:33:44;99339.34;;;13.47;82.95
19594;BME280;9944;48.240;16.478;2023-05-16T11:37:48;99329.66;;;13.46;83.16
19594;BME280;9944;48.240;16.478;2023-05-16T11:41:52;99327.84;;;13.48;83.79
19594;BME280;9944;48.240;16.478;2023-05-16T11:45:59;99327.84;;;13.48;83.85
19594;BME280;9944;48.240;16.478;2023-05-16T11:50:03;99318.22;;;13.43;83.26
19594;BME280;9944;48.240;16.478;2023-05-16T11:54:08;99310.31;;;13.42;83.57
19594;BME280;9944;48.240;16.478;2023-05-16T11:58:11;99305.97;;;13.38;83.53
19594;BME280;9944;48.240;16.478;2023-05-16T12:02:16;99310.44;;;13.36;83.48
19594;BME280;9944;48.240;16.478;2023-05-16T12:06:19;99303.44;;;13.33;84.22
19594;BME280;9944;48.240;16.478;2023-05-16T12:10:22;99298.06;;;13.36;84.31
19594;BME280;9944;48.240;16.478;2023-05-16T12:14:25;99290.91;;;13.40;84.40
19594;BME280;9944;48.240;16.478;2023-05-16T12:18:30;99288.13;;;13.44;84.47
19594;BME280;9944;48.240;16.478;2023-05-16T12:22:33;99289.06;;;13.43;84.16
19594;BME280;9944;48.240;16.478;2023-05-16T12:26:39;99284.66;;;13.42;84.77
19594;BME280;9944;48.240;16.478;2023-05-16T12:30:44;99286.38;;;13.45;84.74
19594;BME280;9944;48.240;16.478;2023-05-16T12:34:50;99283.59;;;13.50;85.08
19594;BME280;9944;48.240;16.478;2023-05-16T12:38:54;99268.50;;;13.52;85.01
19594;BME280;9944;48.240;16.478;2023-05-16T12:42:57;99251.63;;;13.56;85.04
19594;BME280;9944;48.240;16.478;2023-05-16T12:47:01;99261.25;;;13.60;84.99
19594;BME280;9944;48.240;16.478;2023-05-16T12:51:13;99241.00;;;13.57;84.85
19594;BME280;9944;48.240;16.478;2023-05-16T12:55:17;99240.03;;;13.60;84.76
19594;BME280;9944;48.240;16.478;2023-05-16T12:59:20;99250.69;;;13.58;84.72
19594;BME280;9944;48.240;16.478;2023-05-16T13:03:23;99245.31;;;13.61;84.75
19594;BME280;9944;48.240;16.478;2023-05-16T13:07:28;99243.63;;;13.59;84.64
19594;BME280;9944;48.240;16.478;2023-05-16T13:11:31;99235.66;;;13.59;84.99
19594;BME280;9944;48.240;16.478;2023-05-16T13:15:34;99225.06;;;13.59;84.60
19594;BME280;9944;48.240;16.478;2023-05-16T13:19:37;99230.44;;;13.56;84.49
19594;BME280;9944;48.240;16.478;2023-05-16T13:23:41;99218.06;;;13.55;84.51
19594;BME280;9944;48.240;16.478;2023-05-16T13:27:44;99193.38;;;13.53;84.48
19594;BME280;9944;48.240;16.478;2023-05-16T13:31:50;99188.94;;;13.53;84.36
19594;BME280;9944;48.240;16.478;2023-05-16T13:35:53;99200.44;;;13.54;84.85
19594;BME280;9944;48.240;16.478;2023-05-16T13:39:58;99217.19;;;13.54;84.92
19594;BME280;9944;48.240;16.478;2023-05-16T13:44:01;99218.06;;;13.55;84.81
19594;BME280;9944;48.240;16.478;2023-05-16T13:48:05;99218.06;;;13.55;84.64
19594;BME280;9944;48.240;16.478;2023-05-16T13:52:09;99224.34;;;13.52;84.68
19594;BME280;9944;48.240;16.478;2023-05-16T13:56:13;99223.53;;;13.49;84.43
19594;BME280;9944;48.240;16.478;2023-05-16T14:00:18;99231.56;;;13.46;84.49
19594;BME280;9944;48.240;16.478;2023-05-16T14:04:24;99225.44;;;13.43;84.51
19594;BME280;9944;48.240;16.478;2023-05-16T14:08:27;99204.34;;;13.37;84.58
19594;BME280;9944;48.240;16.478;2023-05-16T14:12:32;99196.34;;;13.40;84.70
19594;BME280;9944;48.240;16.478;2023-05-16T14:16:35;99197.34;;;13.36;84.50
19594;BME280;9944;48.240;16.478;2023-05-16T14:20:38;99184.97;;;13.35;84.73
19594;BME280;9944;48.240;16.478;2023-05-16T14:24:41;99184.97;;;13.35;84.92
19594;BME280;9944;48.240;16.478;2023-05-16T14:28:46;99186.72;;;13.36;84.66
19594;BME280;9944;48.240;16.478;2023-05-16T14:32:49;99195.50;;;13.38;85.17
19594;BME280;9944;48.240;16.478;2023-05-16T14:36:52;99191.03;;;13.40;85.08
19594;BME280;9944;48.240;16.478;2023-05-16T14:40:55;99186.47;;;13.46;85.11
19594;BME280;9944;48.240;16.478;2023-05-16T14:44:59;99181.19;;;13.46;85.20
19594;BME280;9944;48.240;16.478;2023-05-16T14:49:02;99177.53;;;13.50;85.44
19594;BME280;9944;48.240;16.478;2023-05-16T14:53:06;99178.47;;;13.49;85.30
19594;BME280;9944;48.240;16.478;2023-05-16T14:57:09;99176.75;;;13.46;85.20
19594;BME280;9944;48.240;16.478;2023-05-16T15:01:13;99167.16;;;13.40;85.06
19594;BME280;9944;48.240;16.478;2023-05-16T15:05:17;99174.38;;;13.35;84.79
19594;BME280;9944;48.240;16.478;2023-05-16T15:09:21;99170.06;;;13.31;85.08
19594;BME280;9944;48.240;16.478;2023-05-16T15:13:25;99174.44;;;13.32;85.11
19594;BME280;9944;48.240;16.478;2023-05-16T15:17:30;99176.25;;;13.30;85.14
19594;BME280;9944;48.240;16.478;2023-05-16T15:21:33;99176.25;;;13.30;85.28
19594;BME280;9944;48.240;16.478;2023-05-16T15:25:36;99170.97;;;13.30;85.13
19594;BME280;9944;48.240;16.478;2023-05-16T15:29:39;99171.03;;;13.27;85.38
19594;BME280;9944;48.240;16.478;2023-05-16T15:33:44;99160.41;;;13.29;85.09
19594;BME280;9944;48.240;16.478;2023-05-16T15:37:49;99174.59;;;13.26;85.27
19594;BME280;9944;48.240;16.478;2023-05-16T15:41:53;99168.41;;;13.25;85.20
19594;BME280;9944;48.240;16.478;2023-05-16T15:46:11;99170.28;;;13.22;85.18
19594;BME280;9944;48.240;16.478;2023-05-16T15:50:16;99169.44;;;13.20;85.21
19594;BME280;9944;48.240;16.478;2023-05-16T15:54:19;99161.59;;;13.15;85.11
19594;BME280;9944;48.240;16.478;2023-05-16T15:58:23;99160.72;;;13.15;85.02
19594;BME280;9944;48.240;16.478;2023-05-16T16:02:26;99156.38;;;13.14;85.23
19594;BME280;9944;48.240;16.478;2023-05-16T16:06:30;99155.59;;;13.09;84.69
19594;BME280;9944;48.240;16.478;2023-05-16T16:10:33;99144.94;;;13.10;84.86
19594;BME280;9944;48.240;16.478;2023-05-16T16:14:36;99127.34;;;13.07;84.98
19594;BME280;9944;48.240;16.478;2023-05-16T16:18:40;99129.09;;;13.09;85.20
19594;BME280;9944;48.240;16.478;2023-05-16T16:22:45;99121.09;;;13.10;85.23
19594;BME280;9944;48.240;16.478;2023-05-16T16:26:48;99128.25;;;13.06;84.75
19594;BME280;9944;48.240;16.478;2023-05-16T16:30:51;99122.06;;;13.07;85.36
19594;BME280;9944;48.240;16.478;2023-05-16T16:34:54;99119.41;;;13.07;85.39
19594;BME280;9944;48.240;16.478;2023-05-16T16:38:59;99117.59;;;13.08;85.10
19594;BME280;9944;48.240;16.478;2023-05-16T16:43:02;99115.00;;;13.06;85.48
19594;BME280;9944;48.240;16.478;2023-05-16T16:47:06;99123.88;;;13.05;85.30
19594;BME280;9944;48.240;16.478;2023-05-16T16:51:10;99119.53;;;13.01;85.49
19594;BME280;9944;48.240;16.478;2023-05-16T16:55:15;99107.25;;;12.99;85.24
19594;BME280;9944;48.240;16.478;2023-05-16T16:59:19;99112.59;;;12.97;85.42
19594;BME280;9944;48.240;16.478;2023-05-16T17:03:22;99102.94;;;12.95;85.64
19594;BME280;9944;48.240;16.478;2023-05-16T17:07:25;99109.09;;;12.95;85.50
19594;BME280;9944;48.240;16.478;2023-05-16T17:11:30;99110.84;;;12.96;85.62
19594;BME280;9944;48.240;16.478;2023-05-16T17:15:36;99110.00;;;12.94;85.52
19594;BME280;9944;48.240;16.478;2023-05-16T17:19:39;99106.53;;;12.92;85.67
19594;BME280;9944;48.240;16.478;2023-05-16T17:23:42;99110.00;;;12.94;85.84
19594;BME280;9944;48.240;16.478;2023-05-16T17:27:47;99109.19;;;12.92;85.51
19594;BME280;9944;48.240;16.478;2023-05-16T17:31:50;99118.88;;;12.93;85.86
19594;BME280;9944;48.240;16.478;2023-05-16T17:35:53;99122.44;;;12.92;85.86
19594;BME280;9944;48.240;16.478;2023-05-16T17:39:56;99124.19;;;12.93;86.02
19594;BME280;9944;48.240;16.478;2023-05-16T17:44:02;99136.56;;;12.91;86.12
19594;BME280;9944;48.240;16.478;2023-05-16T17:48:07;99129.53;;;12.90;86.06
19594;BME280;9944;48.240;16.478;2023-05-16T17:52:11;99142.91;;;12.84;86.61
19594;BME280;9944;48.240;16.478;2023-05-16T17:56:15;99145.66;;;12.81;86.68
19594;BME280;9944;48.240;16.478;2023-05-16T18:00:20;99142.25;;;12.76;87.08
19594;BME280;9944;48.240;16.478;2023-05-16T18:04:24;99144.13;;;12.71;87.42
19594;BME280;9944;48.240;16.478;2023-05-16T18:08:28;99138.91;;;12.67;87.70
19594;BME280;9944;48.240;16.478;2023-05-16T18:12:31;99149.56;;;12.64;87.77
19594;BME280;9944;48.240;16.478;2023-05-16T18:16:35;99132.00;;;12.60;87.63
19594;BME280;9944;48.240;16.478;2023-05-16T18:20:38;99131.19;;;12.57;88.02
19594;BME280;9944;48.240;16.478;2023-05-16T18:24:42;99143.56;;;12.55;88.05
19594;BME280;9944;48.240;16.478;2023-05-16T18:28:45;99142.81;;;12.49;88.18
19594;BME280;9944;48.240;16.478;2023-05-16T18:32:49;99160.47;;;12.47;88.29
19594;BME280;9944;48.240;16.478;2023-05-16T18:36:53;99166.69;;;12.46;88.75
19594;BME280;9944;48.240;16.478;2023-05-16T18:40:56;99170.25;;;12.45;88.37
19594;BME280;9944;48.240;16.478;2023-05-16T18:44:59;99160.66;;;12.40;88.47
19594;BME280;9944;48.240;16.478;2023-05-16T18:49:03;99163.34;;;12.38;88.32
19594;BME280;9944;48.240;16.478;2023-05-16T18:53:07;99151.94;;;12.35;88.48
19594;BME280;9944;48.240;16.478;2023-05-16T18:57:10;99153.81;;;12.29;88.47
19594;BME280;9944;48.240;16.478;2023-05-16T19:01:13;99160.06;;;12.27;88.84
19594;BME280;9944;48.240;16.478;2023-05-16T19:05:18;99162.78;;;12.22;88.73
19594;BME280;9944;48.240;16.478;2023-05-16T19:09:21;99162.78;;;12.22;89.37
19594;BME280;9944;48.240;16.478;2023-05-16T19:13:25;99176.03;;;12.22;89.41
19594;BME280;9944;48.240;16.478;2023-05-16T19:17:28;99174.25;;;12.23;88.96
19594;BME280;9944;48.240;16.478;2023-05-16T19:21:33;99184.00;;;12.21;89.35
19594;BME280;9944;48.240;16.478;2023-05-16T19:25:36;99188.34;;;12.23;89.48
19594;BME280;9944;48.240;16.478;2023-05-16T19:29:46;99196.28;;;12.23;89.29
19594;BME280;9944;48.240;16.478;2023-05-16T19:33:49;99193.59;;;12.25;89.81
19594;BME280;9944;48.240;16.478;2023-05-16T19:37:54;99203.28;;;12.27;89.60
19594;BME280;9944;48.240;16.478;2023-05-16T19:41:57;99212.03;;;12.29;89.76
19594;BME280;9944;48.240;16.478;2023-05-16T19:46:08;99217.34;;;12.29;89.71
19594;BME280;9944;48.240;16.478;2023-05-16T19:50:11;99212.09;;;12.26;89.40
19594;BME280;9944;48.240;16.478;2023-05-16T19:54:15;99220.97;;;12.25;89.76
19594;BME280;9944;48.240;16.478;2023-05-16T19:58:21;99214.81;;;12.23;89.73
19594;BME280;9944;48.240;16.478;2023-05-16T20:02:24;99216.56;;;12.24;89.95
19594;BME280;9944;48.240;16.478;2023-05-16T20:06:27;99210.41;;;12.24;89.82
19594;BME280;9944;48.240;16.478;2023-05-16T20:10:32;99210.44;;;12.22;89.49
19594;BME280;9944;48.240;16.478;2023-05-16T20:14:36;99206.94;;;12.20;89.96
19594;BME280;9944;48.240;16.478;2023-05-16T20:18:41;99203.38;;;12.21;90.23
19594;BME280;9944;48.240;16.478;2023-05-16T20:22:45;99196.41;;;12.17;90.06
19594;BME280;9944;48.240;16.478;2023-05-16T20:26:50;99176.13;;;12.18;90.42
19594;BME280;9944;48.240;16.478;2023-05-16T20:30:53;99164.72;;;12.14;90.49
19594;BME280;9944;48.240;16.478;2023-05-16T20:34:57;99163.03;;;12.11;90.88
19594;BME280;9944;48.240;16.478;2023-05-16T20:39:00;99167.41;;;12.11;90.80
19594;BME280;9944;48.240;16.478;2023-05-16T20:43:04;99163.06;;;12.10;91.03
19594;BME280;9944;48.240;16.478;2023-05-16T20:47:07;99166.59;;;12.09;91.42
19594;BME280;9944;48.240;16.478;2023-05-16T20:51:10;99170.06;;;12.11;91.41
19594;BME280;9944;48.240;16.478;2023-05-16T20:55:13;99168.31;;;12.11;91.67
19594;BME280;9944;48.240;16.478;2023-05-16T20:59:18;99163.06;;;12.10;91.41
19594;BME280;9944;48.240;16.478;2023-05-16T21:03:21;99163.91;;;12.10;91.47
19594;BME280;9944;48.240;16.478;2023-05-16T21:07:24;99171.03;;;12.07;91.43
19594;BME280;9944;48.240;16.478;2023-05-16T21:11:27;99174.56;;;12.07;91.72
19594;BME280;9944;48.240;16.478;2023-05-16T21:15:34;99190.41;;;12.09;91.83
19594;BME280;9944;48.240;16.478;2023-05-16T21:19:39;99199.25;;;12.08;91.27
19594;BME280;9944;48.240;16.478;2023-05-16T21:23:42;99192.31;;;12.01;91.10
19594;BME280;9944;48.240;16.478;2023-05-16T21:27:45;99187.94;;;12.00;91.01
19594;BME280;9944;48.240;16.478;2023-05-16T21:31:49;99175.59;;;11.99;91.26
19594;BME280;9944;48.240;16.478;2023-05-16T21:35:52;99182.69;;;11.98;91.56